sensor_id;sensor_type;location;lat;lon;timestamp;pressure;altitude;pressure_sealevel;temperature;humidity
75089;BME280;63673;49.928;8.150;2023-04-26T00:00:22;992.69;;;1.68;100
75089;BME280;63673;49.928;8.150;2023-04-26T00:02:58;992.72;;;1.66;100
75089;BME280;63673;49.928;8.150;2023-04-26T00:04:03;992.65;;;1.64;100
75089;BME280;63673;49.928;8.150;2023-04-26T00:05:05;992.67;;;1.63;100
75089;BME280;63673;49.928;8.150;2023-04-26T00:06:07;992.72;;;1.63;100
75089;BME280;63673;49.928;8.150;2023-04-26T00:07:08;992.69;;;1.62;100
75089;BME280;63673;49.928;8.150;2023-04-26T00:08:10;992.74;;;1.62;100
75089;BME280;63673;49.928;8.150;2023-04-26T00:09:12;992.73;;;1.62;100
75089;BME280;63673;49.928;8.150;2023-04-26T00:10:14;992.73;;;1.62;100
75089;BME280;63673;49.928;8.150;2023-04-26T00:11:15;992.72;;;1.62;100
75089;BME280;63673;49.928;8.150;2023-04-26T00:12:17;992.75;;;1.62;100
75089;BME280;63673;49.928;8.150;2023-04-26T00:13:19;992.72;;;1.62;100
75089;BME280;63673;49.928;8.150;2023-04-26T00:14:20;992.7;;;1.61;100
75089;BME280;63673;49.928;8.150;2023-04-26T00:15:22;992.73;;;1.61;100
75089;BME280;63673;49.928;8.150;2023-04-26T00:16:24;992.74;;;1.6;100
75089;BME280;63673;49.928;8.150;2023-04-26T00:17:26;992.75;;;1.59;100
75089;BME280;63673;49.928;8.150;2023-04-26T00:18:27;992.74;;;1.58;100
75089;BME280;63673;49.928;8.150;2023-04-26T00:19:29;992.74;;;1.56;100
75089;BME280;63673;49.928;8.150;2023-04-26T00:20:31;992.75;;;1.57;100
75089;BME280;63673;49.928;8.150;2023-04-26T00:21:33;992.74;;;1.57;100
75089;BME280;63673;49.928;8.150;2023-04-26T00:22:34;992.77;;;1.57;100
75089;BME280;63673;49.928;8.150;2023-04-26T00:23:36;992.68;;;1.58;100
75089;BME280;63673;49.928;8.150;2023-04-26T00:24:38;992.76;;;1.58;100
75089;BME280;63673;49.928;8.150;2023-04-26T00:25:40;992.73;;;1.58;100
75089;BME280;63673;49.928;8.150;2023-04-26T00:26:41;992.73;;;1.58;100
75089;BME280;63673;49.928;8.150;2023-04-26T00:27:43;992.74;;;1.59;100
75089;BME280;63673;49.928;8.150;2023-04-26T00:28:45;992.82;;;1.6;100
75089;BME280;63673;49.928;8.150;2023-04-26T00:29:47;992.82;;;1.59;100
75089;BME280;63673;49.928;8.150;2023-04-26T00:30:48;992.79;;;1.59;100
75089;BME280;63673;49.928;8.150;2023-04-26T00:31:50;992.82;;;1.59;100
75089;BME280;63673;49.928;8.150;2023-04-26T00:32:52;992.78;;;1.59;100
75089;BME280;63673;49.928;8.150;2023-04-26T00:33:54;992.78;;;1.58;100
75089;BME280;63673;49.928;8.150;2023-04-26T00:34:55;992.84;;;1.57;100
75089;BME280;63673;49.928;8.150;2023-04-26T00:35:57;992.81;;;1.57;100
75089;BME280;63673;49.928;8.150;2023-04-26T00:36:59;992.81;;;1.56;100
75089;BME280;63673;49.928;8.150;2023-04-26T00:38:00;992.82;;;1.54;100
75089;BME280;63673;49.928;8.150;2023-04-26T00:39:02;992.76;;;1.54;100
75089;BME280;63673;49.928;8.150;2023-04-26T00:40:04;992.79;;;1.52;100
75089;BME280;63673;49.928;8.150;2023-04-26T00:41:06;992.72;;;1.51;100
75089;BME280;63673;49.928;8.150;2023-04-26T00:42:07;992.76;;;1.5;100
75089;BME280;63673;49.928;8.150;2023-04-26T00:43:09;992.74;;;1.49;100
75089;BME280;63673;49.928;8.150;2023-04-26T00:44:11;992.73;;;1.49;100
75089;BME280;63673;49.928;8.150;2023-04-26T00:45:13;992.73;;;1.48;100
75089;BME280;63673;49.928;8.150;2023-04-26T00:46:14;992.7;;;1.46;100
75089;BME280;63673;49.928;8.150;2023-04-26T00:47:16;992.68;;;1.46;100
75089;BME280;63673;49.928;8.150;2023-04-26T00:48:18;992.71;;;1.46;100
75089;BME280;63673;49.928;8.150;2023-04-26T00:49:20;992.74;;;1.46;100
75089;BME280;63673;49.928;8.150;2023-04-26T00:50:21;992.73;;;1.45;100
75089;BME280;63673;49.928;8.150;2023-04-26T00:51:23;992.72;;;1.46;100
75089;BME280;63673;49.928;8.150;2023-04-26T00:52:25;992.76;;;1.46;100
75089;BME280;63673;49.928;8.150;2023-04-26T00:53:26;992.73;;;1.47;100
75089;BME280;63673;49.928;8.150;2023-04-26T00:54:28;992.74;;;1.46;100
75089;BME280;63673;49.928;8.150;2023-04-26T00:55:30;992.74;;;1.45;100
75089;BME280;63673;49.928;8.150;2023-04-26T00:56:32;992.77;;;1.45;100
75089;BME280;63673;49.928;8.150;2023-04-26T00:57:33;992.81;;;1.46;100
75089;BME280;63673;49.928;8.150;2023-04-26T00:58:35;992.78;;;1.46;100
75089;BME280;63673;49.928;8.150;2023-04-26T00:59:37;992.79;;;1.46;100
75089;BME280;63673;49.928;8.150;2023-04-26T01:00:39;992.8;;;1.47;100
75089;BME280;63673;49.928;8.150;2023-04-26T01:01:40;992.82;;;1.46;100
75089;BME280;63673;49.928;8.150;2023-04-26T01:02:42;992.8;;;1.46;100
75089;BME280;63673;49.928;8.150;2023-04-26T01:03:44;992.73;;;1.47;100
75089;BME280;63673;49.928;8.150;2023-04-26T01:04:45;992.8;;;1.46;100
75089;BME280;63673;49.928;8.150;2023-04-26T01:05:47;992.75;;;1.46;100
75089;BME280;63673;49.928;8.150;2023-04-26T01:06:49;992.76;;;1.46;100
75089;BME280;63673;49.928;8.150;2023-04-26T01:07:51;992.78;;;1.47;100
75089;BME280;63673;49.928;8.150;2023-04-26T01:08:52;992.76;;;1.47;100
75089;BME280;63673;49.928;8.150;2023-04-26T01:09:54;992.78;;;1.46;100
75089;BME280;63673;49.928;8.150;2023-04-26T01:10:56;992.76;;;1.46;100
75089;BME280;63673;49.928;8.150;2023-04-26T01:11:58;992.72;;;1.45;100
75089;BME280;63673;49.928;8.150;2023-04-26T01:13:00;992.74;;;1.45;100
75089;BME280;63673;49.928;8.150;2023-04-26T01:14:01;992.7;;;1.44;100
75089;BME280;63673;49.928;8.150;2023-04-26T01:15:03;992.74;;;1.44;100
75089;BME280;63673;49.928;8.150;2023-04-26T01:16:05;992.7;;;1.43;100
75089;BME280;63673;49.928;8.150;2023-04-26T01:17:06;992.77;;;1.43;100
75089;BME280;63673;49.928;8.150;2023-04-26T01:18:08;992.74;;;1.42;100
75089;BME280;63673;49.928;8.150;2023-04-26T01:19:10;992.74;;;1.41;100
75089;BME280;63673;49.928;8.150;2023-04-26T01:20:12;992.72;;;1.39;100
75089;BME280;63673;49.928;8.150;2023-04-26T01:21:18;992.73;;;1.39;100
75089;BME280;63673;49.928;8.150;2023-04-26T01:22:15;992.75;;;1.38;100
75089;BME280;63673;49.928;8.150;2023-04-26T01:23:17;992.74;;;1.37;100
75089;BME280;63673;49.928;8.150;2023-04-26T01:24:18;992.73;;;1.37;100
75089;BME280;63673;49.928;8.150;2023-04-26T01:25:20;992.77;;;1.35;100
75089;BME280;63673;49.928;8.150;2023-04-26T01:26:22;992.74;;;1.34;100
75089;BME280;63673;49.928;8.150;2023-04-26T01:27:24;992.74;;;1.35;100
75089;BME280;63673;49.928;8.150;2023-04-26T01:28:25;992.74;;;1.34;100
75089;BME280;63673;49.928;8.150;2023-04-26T01:29:27;992.73;;;1.34;100
75089;BME280;63673;49.928;8.150;2023-04-26T01:30:29;992.68;;;1.35;100
75089;BME280;63673;49.928;8.150;2023-04-26T01:31:31;992.78;;;1.34;100
75089;BME280;63673;49.928;8.150;2023-04-26T01:32:32;992.71;;;1.34;100
75089;BME280;63673;49.928;8.150;2023-04-26T01:33:34;992.74;;;1.34;100
75089;BME280;63673;49.928;8.150;2023-04-26T01:34:36;992.72;;;1.34;100
75089;BME280;63673;49.928;8.150;2023-04-26T01:35:37;992.78;;;1.35;100
75089;BME280;63673;49.928;8.150;2023-04-26T01:36:39;992.71;;;1.34;100
75089;BME280;63673;49.928;8.150;2023-04-26T01:37:41;992.68;;;1.33;100
75089;BME280;63673;49.928;8.150;2023-04-26T01:38:43;992.7;;;1.33;100
75089;BME280;63673;49.928;8.150;2023-04-26T01:39:44;992.69;;;1.33;100
75089;BME280;63673;49.928;8.150;2023-04-26T01:40:46;992.73;;;1.32;100
75089;BME280;63673;49.928;8.150;2023-04-26T01:41:48;992.69;;;1.31;100
75089;BME280;63673;49.928;8.150;2023-04-26T01:42:50;992.75;;;1.3;100
75089;BME280;63673;49.928;8.150;2023-04-26T01:43:51;992.78;;;1.3;100
75089;BME280;63673;49.928;8.150;2023-04-26T01:44:53;992.72;;;1.29;100
75089;BME280;63673;49.928;8.150;2023-04-26T01:45:55;992.69;;;1.28;100
75089;BME280;63673;49.928;8.150;2023-04-26T01:46:57;992.71;;;1.27;100
75089;BME280;63673;49.928;8.150;2023-04-26T01:47:58;992.73;;;1.27;100
75089;BME280;63673;49.928;8.150;2023-04-26T01:49:00;992.72;;;1.26;100
75089;BME280;63673;49.928;8.150;2023-04-26T01:50:02;992.7;;;1.26;100
75089;BME280;63673;49.928;8.150;2023-04-26T01:51:04;992.77;;;1.25;100
75089;BME280;63673;49.928;8.150;2023-04-26T01:52:05;992.71;;;1.25;100
75089;BME280;63673;49.928;8.150;2023-04-26T01:53:07;992.71;;;1.25;100
75089;BME280;63673;49.928;8.150;2023-04-26T01:54:09;992.77;;;1.24;100
75089;BME280;63673;49.928;8.150;2023-04-26T01:55:10;992.79;;;1.24;100
75089;BME280;63673;49.928;8.150;2023-04-26T01:56:12;992.76;;;1.24;100
75089;BME280;63673;49.928;8.150;2023-04-26T01:57:14;992.76;;;1.24;100
75089;BME280;63673;49.928;8.150;2023-04-26T01:58:16;992.75;;;1.24;100
75089;BME280;63673;49.928;8.150;2023-04-26T01:59:17;992.73;;;1.25;100
75089;BME280;63673;49.928;8.150;2023-04-26T02:00:19;992.76;;;1.25;100
75089;BME280;63673;49.928;8.150;2023-04-26T02:01:21;992.76;;;1.25;100
75089;BME280;63673;49.928;8.150;2023-04-26T02:02:23;992.82;;;1.24;100
75089;BME280;63673;49.928;8.150;2023-04-26T02:03:24;992.78;;;1.25;100
75089;BME280;63673;49.928;8.150;2023-04-26T02:04:26;992.74;;;1.27;100
75089;BME280;63673;49.928;8.150;2023-04-26T02:05:28;992.75;;;1.26;100
75089;BME280;63673;49.928;8.150;2023-04-26T02:06:29;992.81;;;1.27;100
75089;BME280;63673;49.928;8.150;2023-04-26T02:07:31;992.8;;;1.27;100
75089;BME280;63673;49.928;8.150;2023-04-26T02:08:33;992.83;;;1.27;100
75089;BME280;63673;49.928;8.150;2023-04-26T02:09:35;992.79;;;1.26;100
75089;BME280;63673;49.928;8.150;2023-04-26T02:10:36;992.84;;;1.24;100
75089;BME280;63673;49.928;8.150;2023-04-26T02:11:38;992.83;;;1.24;100
75089;BME280;63673;49.928;8.150;2023-04-26T02:12:40;992.83;;;1.22;100
75089;BME280;63673;49.928;8.150;2023-04-26T02:13:42;992.82;;;1.21;100
75089;BME280;63673;49.928;8.150;2023-04-26T02:14:43;992.8;;;1.19;100
75089;BME280;63673;49.928;8.150;2023-04-26T02:15:45;992.83;;;1.18;100
75089;BME280;63673;49.928;8.150;2023-04-26T02:16:47;992.76;;;1.17;100
75089;BME280;63673;49.928;8.150;2023-04-26T02:17:49;992.79;;;1.15;100
75089;BME280;63673;49.928;8.150;2023-04-26T02:18:50;992.76;;;1.14;100
75089;BME280;63673;49.928;8.150;2023-04-26T02:19:52;992.77;;;1.14;100
75089;BME280;63673;49.928;8.150;2023-04-26T02:20:54;992.73;;;1.12;100
75089;BME280;63673;49.928;8.150;2023-04-26T02:21:56;992.74;;;1.11;100
75089;BME280;63673;49.928;8.150;2023-04-26T02:22:57;992.76;;;1.09;100
75089;BME280;63673;49.928;8.150;2023-04-26T02:23:59;992.76;;;1.09;100
75089;BME280;63673;49.928;8.150;2023-04-26T02:25:01;992.75;;;1.09;100
75089;BME280;63673;49.928;8.150;2023-04-26T02:26:02;992.67;;;1.08;100
75089;BME280;63673;49.928;8.150;2023-04-26T02:27:04;992.7;;;1.08;100
75089;BME280;63673;49.928;8.150;2023-04-26T02:28:06;992.66;;;1.07;100
75089;BME280;63673;49.928;8.150;2023-04-26T02:29:08;992.7;;;1.07;100
75089;BME280;63673;49.928;8.150;2023-04-26T02:30:09;992.71;;;1.05;100
75089;BME280;63673;49.928;8.150;2023-04-26T02:31:11;992.67;;;1.03;100
75089;BME280;63673;49.928;8.150;2023-04-26T02:32:13;992.69;;;1.02;100
75089;BME280;63673;49.928;8.150;2023-04-26T02:33:15;992.72;;;1;100
75089;BME280;63673;49.928;8.150;2023-04-26T02:34:16;992.67;;;0.99;100
75089;BME280;63673;49.928;8.150;2023-04-26T02:35:18;992.67;;;0.97;100
75089;BME280;63673;49.928;8.150;2023-04-26T02:36:20;992.71;;;0.96;100
75089;BME280;63673;49.928;8.150;2023-04-26T02:37:21;992.67;;;0.94;100
75089;BME280;63673;49.928;8.150;2023-04-26T02:38:23;992.64;;;0.94;100
75089;BME280;63673;49.928;8.150;2023-04-26T02:39:25;992.66;;;0.94;100
75089;BME280;63673;49.928;8.150;2023-04-26T02:40:27;992.71;;;0.94;100
75089;BME280;63673;49.928;8.150;2023-04-26T02:41:30;992.67;;;0.96;100
75089;BME280;63673;49.928;8.150;2023-04-26T02:42:30;992.66;;;0.96;100
75089;BME280;63673;49.928;8.150;2023-04-26T02:43:32;992.7;;;0.97;100
75089;BME280;63673;49.928;8.150;2023-04-26T02:44:34;992.66;;;0.99;100
75089;BME280;63673;49.928;8.150;2023-04-26T02:45:39;992.66;;;1;100
75089;BME280;63673;49.928;8.150;2023-04-26T02:46:37;992.67;;;1.01;100
75089;BME280;63673;49.928;8.150;2023-04-26T02:47:39;992.66;;;1.02;100
75089;BME280;63673;49.928;8.150;2023-04-26T02:48:41;992.63;;;1.03;100
75089;BME280;63673;49.928;8.150;2023-04-26T02:49:42;992.72;;;1.05;100
75089;BME280;63673;49.928;8.150;2023-04-26T02:50:44;992.74;;;1.07;100
75089;BME280;63673;49.928;8.150;2023-04-26T02:51:46;992.71;;;1.07;100
75089;BME280;63673;49.928;8.150;2023-04-26T02:52:47;992.67;;;1.07;100
75089;BME280;63673;49.928;8.150;2023-04-26T02:53:49;992.65;;;1.08;100
75089;BME280;63673;49.928;8.150;2023-04-26T02:54:51;992.58;;;1.08;100
75089;BME280;63673;49.928;8.150;2023-04-26T02:55:53;992.66;;;1.07;100
75089;BME280;63673;49.928;8.150;2023-04-26T02:56:54;992.7;;;1.07;100
75089;BME280;63673;49.928;8.150;2023-04-26T02:57:56;992.68;;;1.07;100
75089;BME280;63673;49.928;8.150;2023-04-26T02:58:58;992.71;;;1.06;100
75089;BME280;63673;49.928;8.150;2023-04-26T03:00:00;992.66;;;1.06;100
75089;BME280;63673;49.928;8.150;2023-04-26T03:01:01;992.69;;;1.06;100
75089;BME280;63673;49.928;8.150;2023-04-26T03:02:03;992.67;;;1.05;100
75089;BME280;63673;49.928;8.150;2023-04-26T03:03:05;992.69;;;1.06;100
75089;BME280;63673;49.928;8.150;2023-04-26T03:04:07;992.67;;;1.07;100
75089;BME280;63673;49.928;8.150;2023-04-26T03:05:08;992.63;;;1.07;100
75089;BME280;63673;49.928;8.150;2023-04-26T03:06:10;992.7;;;1.06;100
75089;BME280;63673;49.928;8.150;2023-04-26T03:07:12;992.6;;;1.06;100
75089;BME280;63673;49.928;8.150;2023-04-26T03:08:19;992.64;;;1.06;100
75089;BME280;63673;49.928;8.150;2023-04-26T03:09:20;992.62;;;1.05;100
75089;BME280;63673;49.928;8.150;2023-04-26T03:10:22;992.65;;;1.04;100
75089;BME280;63673;49.928;8.150;2023-04-26T03:11:24;992.64;;;1.03;100
75089;BME280;63673;49.928;8.150;2023-04-26T03:12:26;992.65;;;1.03;100
75089;BME280;63673;49.928;8.150;2023-04-26T03:13:27;992.64;;;1.02;100
75089;BME280;63673;49.928;8.150;2023-04-26T03:14:29;992.6;;;1.02;100
75089;BME280;63673;49.928;8.150;2023-04-26T03:15:31;992.64;;;1.01;100
75089;BME280;63673;49.928;8.150;2023-04-26T03:16:38;992.65;;;0.99;100
75089;BME280;63673;49.928;8.150;2023-04-26T03:17:34;992.6;;;1.01;100
75089;BME280;63673;49.928;8.150;2023-04-26T03:18:36;992.6;;;1.01;100
75089;BME280;63673;49.928;8.150;2023-04-26T03:19:38;992.57;;;1.01;100
75089;BME280;63673;49.928;8.150;2023-04-26T03:20:40;992.63;;;1;100
75089;BME280;63673;49.928;8.150;2023-04-26T03:21:41;992.59;;;1.01;100
75089;BME280;63673;49.928;8.150;2023-04-26T03:22:43;992.63;;;1;100
75089;BME280;63673;49.928;8.150;2023-04-26T03:23:45;992.63;;;1;100
75089;BME280;63673;49.928;8.150;2023-04-26T03:24:47;992.6;;;1;100
75089;BME280;63673;49.928;8.150;2023-04-26T03:25:48;992.58;;;1;100
75089;BME280;63673;49.928;8.150;2023-04-26T03:26:50;992.6;;;0.99;100
75089;BME280;63673;49.928;8.150;2023-04-26T03:27:51;992.59;;;0.98;100
75089;BME280;63673;49.928;8.150;2023-04-26T03:28:53;992.59;;;0.97;100
75089;BME280;63673;49.928;8.150;2023-04-26T03:29:55;992.57;;;0.96;100
75089;BME280;63673;49.928;8.150;2023-04-26T03:30:57;992.63;;;0.95;100
75089;BME280;63673;49.928;8.150;2023-04-26T03:31:58;992.6;;;0.93;100
75089;BME280;63673;49.928;8.150;2023-04-26T03:33:00;992.57;;;0.91;100
75089;BME280;63673;49.928;8.150;2023-04-26T03:34:02;992.62;;;0.89;100
75089;BME280;63673;49.928;8.150;2023-04-26T03:35:04;992.64;;;0.87;100
75089;BME280;63673;49.928;8.150;2023-04-26T03:36:05;992.67;;;0.84;100
75089;BME280;63673;49.928;8.150;2023-04-26T03:37:07;992.61;;;0.82;100
75089;BME280;63673;49.928;8.150;2023-04-26T03:38:09;992.64;;;0.78;100
75089;BME280;63673;49.928;8.150;2023-04-26T03:39:11;992.64;;;0.77;100
75089;BME280;63673;49.928;8.150;2023-04-26T03:40:12;992.65;;;0.74;100
75089;BME280;63673;49.928;8.150;2023-04-26T03:41:14;992.65;;;0.72;100
75089;BME280;63673;49.928;8.150;2023-04-26T03:42:16;992.66;;;0.7;100
75089;BME280;63673;49.928;8.150;2023-04-26T03:43:18;992.62;;;0.68;100
75089;BME280;63673;49.928;8.150;2023-04-26T03:44:19;992.59;;;0.65;100
75089;BME280;63673;49.928;8.150;2023-04-26T03:45:21;992.62;;;0.64;100
75089;BME280;63673;49.928;8.150;2023-04-26T03:46:23;992.6;;;0.63;100
75089;BME280;63673;49.928;8.150;2023-04-26T03:47:24;992.6;;;0.61;100
75089;BME280;63673;49.928;8.150;2023-04-26T03:48:26;992.59;;;0.61;100
75089;BME280;63673;49.928;8.150;2023-04-26T03:49:28;992.53;;;0.59;100
75089;BME280;63673;49.928;8.150;2023-04-26T03:50:30;992.57;;;0.58;100
75089;BME280;63673;49.928;8.150;2023-04-26T03:51:31;992.55;;;0.59;100
75089;BME280;63673;49.928;8.150;2023-04-26T03:52:33;992.55;;;0.57;100
75089;BME280;63673;49.928;8.150;2023-04-26T03:53:35;992.52;;;0.57;100
75089;BME280;63673;49.928;8.150;2023-04-26T03:54:37;992.56;;;0.56;100
75089;BME280;63673;49.928;8.150;2023-04-26T03:55:38;992.54;;;0.56;100
75089;BME280;63673;49.928;8.150;2023-04-26T03:56:40;992.55;;;0.57;100
75089;BME280;63673;49.928;8.150;2023-04-26T03:57:42;992.53;;;0.58;100
75089;BME280;63673;49.928;8.150;2023-04-26T03:58:43;992.52;;;0.58;100
75089;BME280;63673;49.928;8.150;2023-04-26T03:59:45;992.53;;;0.59;100
75089;BME280;63673;49.928;8.150;2023-04-26T04:00:47;992.49;;;0.59;100
75089;BME280;63673;49.928;8.150;2023-04-26T04:01:49;992.47;;;0.6;100
75089;BME280;63673;49.928;8.150;2023-04-26T04:02:50;992.49;;;0.61;100
75089;BME280;63673;49.928;8.150;2023-04-26T04:03:52;992.48;;;0.61;100
75089;BME280;63673;49.928;8.150;2023-04-26T04:04:54;992.46;;;0.63;100
75089;BME280;63673;49.928;8.150;2023-04-26T04:05:56;992.5;;;0.64;100
75089;BME280;63673;49.928;8.150;2023-04-26T04:06:57;992.43;;;0.65;100
75089;BME280;63673;49.928;8.150;2023-04-26T04:07:59;992.4;;;0.65;100
75089;BME280;63673;49.928;8.150;2023-04-26T04:09:01;992.43;;;0.66;100
75089;BME280;63673;49.928;8.150;2023-04-26T04:10:03;992.46;;;0.67;100
75089;BME280;63673;49.928;8.150;2023-04-26T04:11:04;992.44;;;0.66;100
75089;BME280;63673;49.928;8.150;2023-04-26T04:12:06;992.45;;;0.68;100
75089;BME280;63673;49.928;8.150;2023-04-26T04:13:08;992.43;;;0.68;100
75089;BME280;63673;49.928;8.150;2023-04-26T04:14:09;992.45;;;0.69;100
75089;BME280;63673;49.928;8.150;2023-04-26T04:15:11;992.5;;;0.7;100
75089;BME280;63673;49.928;8.150;2023-04-26T04:16:13;992.48;;;0.71;100
75089;BME280;63673;49.928;8.150;2023-04-26T04:17:15;992.48;;;0.71;100
75089;BME280;63673;49.928;8.150;2023-04-26T04:18:16;992.53;;;0.71;100
75089;BME280;63673;49.928;8.150;2023-04-26T04:19:18;992.53;;;0.71;100
75089;BME280;63673;49.928;8.150;2023-04-26T04:20:20;992.52;;;0.7;100
75089;BME280;63673;49.928;8.150;2023-04-26T04:21:22;992.56;;;0.68;100
75089;BME280;63673;49.928;8.150;2023-04-26T04:22:23;992.57;;;0.66;100
75089;BME280;63673;49.928;8.150;2023-04-26T04:23:25;992.59;;;0.61;100
75089;BME280;63673;49.928;8.150;2023-04-26T04:24:27;992.58;;;0.59;100
75089;BME280;63673;49.928;8.150;2023-04-26T04:25:29;992.6;;;0.56;100
75089;BME280;63673;49.928;8.150;2023-04-26T04:26:30;992.61;;;0.53;100
75089;BME280;63673;49.928;8.150;2023-04-26T04:27:32;992.6;;;0.5;100
75089;BME280;63673;49.928;8.150;2023-04-26T04:28:34;992.64;;;0.47;100
75089;BME280;63673;49.928;8.150;2023-04-26T04:29:35;992.63;;;0.45;100
75089;BME280;63673;49.928;8.150;2023-04-26T04:30:37;992.65;;;0.44;100
75089;BME280;63673;49.928;8.150;2023-04-26T04:31:39;992.66;;;0.42;100
75089;BME280;63673;49.928;8.150;2023-04-26T04:32:41;992.64;;;0.41;100
75089;BME280;63673;49.928;8.150;2023-04-26T04:33:43;992.68;;;0.41;100
75089;BME280;63673;49.928;8.150;2023-04-26T04:36:32;992.73;;;0.37;100
75089;BME280;63673;49.928;8.150;2023-04-26T04:39:42;992.73;;;0.32;100
75089;BME280;63673;49.928;8.150;2023-04-26T04:40:46;992.78;;;0.31;100
75089;BME280;63673;49.928;8.150;2023-04-26T04:41:46;992.8;;;0.3;100
75089;BME280;63673;49.928;8.150;2023-04-26T04:42:48;992.85;;;0.29;100
75089;BME280;63673;49.928;8.150;2023-04-26T04:43:49;992.85;;;0.28;100
75089;BME280;63673;49.928;8.150;2023-04-26T04:44:51;992.86;;;0.25;100
75089;BME280;63673;49.928;8.150;2023-04-26T04:45:53;992.92;;;0.24;100
75089;BME280;63673;49.928;8.150;2023-04-26T04:46:54;992.9;;;0.22;100
75089;BME280;63673;49.928;8.150;2023-04-26T04:47:56;992.93;;;0.21;100
75089;BME280;63673;49.928;8.150;2023-04-26T04:48:58;992.97;;;0.19;100
75089;BME280;63673;49.928;8.150;2023-04-26T04:50:00;992.98;;;0.19;100
75089;BME280;63673;49.928;8.150;2023-04-26T04:51:01;992.98;;;0.19;100
75089;BME280;63673;49.928;8.150;2023-04-26T04:52:03;992.97;;;0.17;100
75089;BME280;63673;49.928;8.150;2023-04-26T04:53:05;992.97;;;0.17;100
75089;BME280;63673;49.928;8.150;2023-04-26T04:54:08;992.96;;;0.15;100
75089;BME280;63673;49.928;8.150;2023-04-26T04:55:08;992.95;;;0.15;100
75089;BME280;63673;49.928;8.150;2023-04-26T04:56:10;992.97;;;0.15;100
75089;BME280;63673;49.928;8.150;2023-04-26T04:57:12;993;;;0.16;100
75089;BME280;63673;49.928;8.150;2023-04-26T04:58:13;993.04;;;0.17;100
75089;BME280;63673;49.928;8.150;2023-04-26T04:59:15;993.07;;;0.18;100
75089;BME280;63673;49.928;8.150;2023-04-26T05:00:17;993.05;;;0.19;100
75089;BME280;63673;49.928;8.150;2023-04-26T05:01:19;992.98;;;0.21;100
75089;BME280;63673;49.928;8.150;2023-04-26T05:02:20;993.02;;;0.22;100
75089;BME280;63673;49.928;8.150;2023-04-26T05:03:22;992.96;;;0.22;100
75089;BME280;63673;49.928;8.150;2023-04-26T05:04:24;992.98;;;0.24;100
75089;BME280;63673;49.928;8.150;2023-04-26T05:05:26;993.02;;;0.24;100
75089;BME280;63673;49.928;8.150;2023-04-26T05:06:27;993.01;;;0.24;100
75089;BME280;63673;49.928;8.150;2023-04-26T05:07:29;993.04;;;0.25;100
75089;BME280;63673;49.928;8.150;2023-04-26T05:08:31;993.03;;;0.26;100
75089;BME280;63673;49.928;8.150;2023-04-26T05:09:32;993.04;;;0.27;100
75089;BME280;63673;49.928;8.150;2023-04-26T05:10:34;993.05;;;0.29;100
75089;BME280;63673;49.928;8.150;2023-04-26T05:11:36;993.03;;;0.29;100
75089;BME280;63673;49.928;8.150;2023-04-26T05:12:38;993.05;;;0.31;100
75089;BME280;63673;49.928;8.150;2023-04-26T05:13:39;993.1;;;0.32;100
75089;BME280;63673;49.928;8.150;2023-04-26T05:14:41;993.07;;;0.34;100
75089;BME280;63673;49.928;8.150;2023-04-26T05:15:43;993.05;;;0.36;100
75089;BME280;63673;49.928;8.150;2023-04-26T05:16:45;993.06;;;0.38;100
75089;BME280;63673;49.928;8.150;2023-04-26T05:17:46;993.06;;;0.41;100
75089;BME280;63673;49.928;8.150;2023-04-26T05:18:48;993.07;;;0.42;100
75089;BME280;63673;49.928;8.150;2023-04-26T05:19:50;993.1;;;0.45;100
75089;BME280;63673;49.928;8.150;2023-04-26T05:20:52;993.04;;;0.48;100
75089;BME280;63673;49.928;8.150;2023-04-26T05:21:53;993.05;;;0.51;100
75089;BME280;63673;49.928;8.150;2023-04-26T05:22:55;993.06;;;0.54;100
75089;BME280;63673;49.928;8.150;2023-04-26T05:23:57;993.09;;;0.58;100
75089;BME280;63673;49.928;8.150;2023-04-26T05:24:58;993.08;;;0.6;100
75089;BME280;63673;49.928;8.150;2023-04-26T05:26:00;993.08;;;0.63;100
75089;BME280;63673;49.928;8.150;2023-04-26T05:27:02;993.04;;;0.66;100
75089;BME280;63673;49.928;8.150;2023-04-26T05:28:04;993.08;;;0.69;100
75089;BME280;63673;49.928;8.150;2023-04-26T05:29:06;993.06;;;0.73;100
75089;BME280;63673;49.928;8.150;2023-04-26T05:30:08;993.12;;;0.75;100
75089;BME280;63673;49.928;8.150;2023-04-26T05:31:09;993.17;;;0.78;100
75089;BME280;63673;49.928;8.150;2023-04-26T05:32:11;993.16;;;0.81;100
75089;BME280;63673;49.928;8.150;2023-04-26T05:33:12;993.2;;;0.85;100
75089;BME280;63673;49.928;8.150;2023-04-26T05:34:14;993.18;;;0.87;100
75089;BME280;63673;49.928;8.150;2023-04-26T05:35:16;993.17;;;0.9;100
75089;BME280;63673;49.928;8.150;2023-04-26T05:36:18;993.21;;;0.93;100
75089;BME280;63673;49.928;8.150;2023-04-26T05:37:19;993.22;;;0.97;100
75089;BME280;63673;49.928;8.150;2023-04-26T05:38:21;993.21;;;1;100
75089;BME280;63673;49.928;8.150;2023-04-26T05:39:23;993.22;;;1.05;100
75089;BME280;63673;49.928;8.150;2023-04-26T05:40:25;993.2;;;1.08;100
75089;BME280;63673;49.928;8.150;2023-04-26T05:41:26;993.2;;;1.12;100
75089;BME280;63673;49.928;8.150;2023-04-26T05:42:28;993.19;;;1.17;100
75089;BME280;63673;49.928;8.150;2023-04-26T05:43:30;993.19;;;1.2;100
75089;BME280;63673;49.928;8.150;2023-04-26T05:44:31;993.22;;;1.24;100
75089;BME280;63673;49.928;8.150;2023-04-26T05:45:33;993.2;;;1.27;100
75089;BME280;63673;49.928;8.150;2023-04-26T05:46:35;993.18;;;1.31;100
75089;BME280;63673;49.928;8.150;2023-04-26T05:47:37;993.2;;;1.36;100
75089;BME280;63673;49.928;8.150;2023-04-26T05:48:38;993.21;;;1.39;100
75089;BME280;63673;49.928;8.150;2023-04-26T05:49:40;993.27;;;1.44;100
75089;BME280;63673;49.928;8.150;2023-04-26T05:50:42;993.27;;;1.47;100
75089;BME280;63673;49.928;8.150;2023-04-26T05:51:44;993.23;;;1.51;100
75089;BME280;63673;49.928;8.150;2023-04-26T05:52:45;993.23;;;1.57;100
75089;BME280;63673;49.928;8.150;2023-04-26T05:53:47;993.24;;;1.61;100
75089;BME280;63673;49.928;8.150;2023-04-26T05:54:49;993.23;;;1.68;100
75089;BME280;63673;49.928;8.150;2023-04-26T05:55:50;993.21;;;1.73;100
75089;BME280;63673;49.928;8.150;2023-04-26T05:56:52;993.25;;;1.79;100